sensor_id;sensor_type;location;lat;lon;timestamp;temperature;humidity
6118;DHT22;3089;48.202;11.510;2023-03-14T00:02:32;10.80;99.90
6118;DHT22;3089;48.202;11.510;2023-03-14T00:05:00;10.80;99.90
6118;DHT22;3089;48.202;11.510;2023-03-14T00:07:28;10.80;99.90
6118;DHT22;3089;48.202;11.510;2023-03-14T00:10:02;10.70;99.90
6118;DHT22;3089;48.202;11.510;2023-03-14T00:12:31;10.60;99.90
6118;DHT22;3089;48.202;11.510;2023-03-14T00:14:59;10.50;99.90
6118;DHT22;3089;48.202;11.510;2023-03-14T00:17:30;10.50;99.90
6118;DHT22;3089;48.202;11.510;2023-03-14T00:19:58;10.60;99.90
6118;DHT22;3089;48.202;11.510;2023-03-14T00:22:30;10.60;99.90
6118;DHT22;3089;48.202;11.510;2023-03-14T00:24:58;10.60;99.90
6118;DHT22;3089;48.202;11.510;2023-03-14T00:27:28;10.70;99.90
6118;DHT22;3089;48.202;11.510;2023-03-14T00:29:56;10.70;99.90
6118;DHT22;3089;48.202;11.510;2023-03-14T00:32:25;10.70;99.90
6118;DHT22;3089;48.202;11.510;2023-03-14T00:34:52;10.60;99.90
6118;DHT22;3089;48.202;11.510;2023-03-14T00:37:20;10.50;99.90
6118;DHT22;3089;48.202;11.510;2023-03-14T00:39:48;10.40;99.90
6118;DHT22;3089;48.202;11.510;2023-03-14T00:42:18;10.40;99.90
6118;DHT22;3089;48.202;11.510;2023-03-14T00:44:47;10.50;99.90
6118;DHT22;3089;48.202;11.510;2023-03-14T00:47:15;10.60;99.90
6118;DHT22;3089;48.202;11.510;2023-03-14T00:49:43;10.60;99.90
6118;DHT22;3089;48.202;11.510;2023-03-14T00:52:11;10.60;99.90
6118;DHT22;3089;48.202;11.510;2023-03-14T00:54:39;10.70;99.90
6118;DHT22;3089;48.202;11.510;2023-03-14T00:57:06;10.60;99.90
6118;DHT22;3089;48.202;11.510;2023-03-14T00:59:34;10.50;99.90
6118;DHT22;3089;48.202;11.510;2023-03-14T01:02:03;10.50;99.90
6118;DHT22;3089;48.202;11.510;2023-03-14T01:04:31;10.50;99.90
6118;DHT22;3089;48.202;11.510;2023-03-14T01:06:59;10.50;99.90
6118;DHT22;3089;48.202;11.510;2023-03-14T01:09:27;10.60;99.90
6118;DHT22;3089;48.202;11.510;2023-03-14T01:11:55;10.60;99.90
6118;DHT22;3089;48.202;11.510;2023-03-14T01:14:23;10.50;99.90
6118;DHT22;3089;48.202;11.510;2023-03-14T01:16:50;10.50;99.90
6118;DHT22;3089;48.202;11.510;2023-03-14T01:19:19;10.50;99.90
6118;DHT22;3089;48.202;11.510;2023-03-14T01:21:47;10.60;99.90
6118;DHT22;3089;48.202;11.510;2023-03-14T01:24:15;10.60;99.90
6118;DHT22;3089;48.202;11.510;2023-03-14T01:26:43;10.50;99.90
6118;DHT22;3089;48.202;11.510;2023-03-14T01:29:11;10.50;99.90
6118;DHT22;3089;48.202;11.510;2023-03-14T01:31:38;10.50;99.90
6118;DHT22;3089;48.202;11.510;2023-03-14T01:34:06;10.50;99.90
6118;DHT22;3089;48.202;11.510;2023-03-14T01:36:35;10.50;99.90
6118;DHT22;3089;48.202;11.510;2023-03-14T01:39:04;10.50;99.90
6118;DHT22;3089;48.202;11.510;2023-03-14T01:41:32;10.50;99.90
6118;DHT22;3089;48.202;11.510;2023-03-14T01:44:00;10.50;99.90
6118;DHT22;3089;48.202;11.510;2023-03-14T01:46:35;10.40;99.90
6118;DHT22;3089;48.202;11.510;2023-03-14T01:51:55;10.50;99.90
6118;DHT22;3089;48.202;11.510;2023-03-14T01:54:27;10.50;99.90
6118;DHT22;3089;48.202;11.510;2023-03-14T01:57:03;10.40;99.90
6118;DHT22;3089;48.202;11.510;2023-03-14T01:59:33;10.40;99.90
6118;DHT22;3089;48.202;11.510;2023-03-14T02:02:04;10.40;99.90
6118;DHT22;3089;48.202;11.510;2023-03-14T02:04:35;10.40;99.90
6118;DHT22;3089;48.202;11.510;2023-03-14T02:07:09;10.40;99.90
6118;DHT22;3089;48.202;11.510;2023-03-14T02:09:38;10.40;99.90
6118;DHT22;3089;48.202;11.510;2023-03-14T02:12:08;10.30;99.90
6118;DHT22;3089;48.202;11.510;2023-03-14T02:14:36;10.30;99.90
6118;DHT22;3089;48.202;11.510;2023-03-14T02:17:05;10.30;99.90
6118;DHT22;3089;48.202;11.510;2023-03-14T02:19:49;10.30;99.90
6118;DHT22;3089;48.202;11.510;2023-03-14T02:22:19;10.30;99.90
6118;DHT22;3089;48.202;11.510;2023-03-14T02:24:54;10.30;99.90
6118;DHT22;3089;48.202;11.510;2023-03-14T02:27:25;10.20;99.90
6118;DHT22;3089;48.202;11.510;2023-03-14T02:29:56;10.10;99.90
6118;DHT22;3089;48.202;11.510;2023-03-14T02:32:26;10.20;99.90
6118;DHT22;3089;48.202;11.510;2023-03-14T02:34:57;10.10;99.90
6118;DHT22;3089;48.202;11.510;2023-03-14T02:37:30;10.10;99.90
6118;DHT22;3089;48.202;11.510;2023-03-14T02:39:59;10.00;99.90
6118;DHT22;3089;48.202;11.510;2023-03-14T02:42:28;10.00;99.90
6118;DHT22;3089;48.202;11.510;2023-03-14T02:45:01;10.00;99.90
6118;DHT22;3089;48.202;11.510;2023-03-14T02:47:53;10.00;99.90
6118;DHT22;3089;48.202;11.510;2023-03-14T02:50:24;10.00;99.90
6118;DHT22;3089;48.202;11.510;2023-03-14T02:52:53;10.00;99.90
6118;DHT22;3089;48.202;11.510;2023-03-14T02:55:22;9.80;99.90
6118;DHT22;3089;48.202;11.510;2023-03-14T02:57:50;9.90;99.90
6118;DHT22;3089;48.202;11.510;2023-03-14T03:00:18;9.90;99.90
6118;DHT22;3089;48.202;11.510;2023-03-14T03:02:46;9.80;99.90
6118;DHT22;3089;48.202;11.510;2023-03-14T03:05:16;9.80;99.90
6118;DHT22;3089;48.202;11.510;2023-03-14T03:07:43;9.90;99.90
6118;DHT22;3089;48.202;11.510;2023-03-14T03:10:12;9.90;99.90
6118;DHT22;3089;48.202;11.510;2023-03-14T03:12:39;9.80;99.90
6118;DHT22;3089;48.202;11.510;2023-03-14T03:15:08;9.90;99.90
6118;DHT22;3089;48.202;11.510;2023-03-14T03:17:36;9.90;99.90
6118;DHT22;3089;48.202;11.510;2023-03-14T03:20:04;9.90;99.90
6118;DHT22;3089;48.202;11.510;2023-03-14T03:22:37;9.90;99.90
6118;DHT22;3089;48.202;11.510;2023-03-14T03:25:06;9.70;99.90
6118;DHT22;3089;48.202;11.510;2023-03-14T03:27:35;9.80;99.90
6118;DHT22;3089;48.202;11.510;2023-03-14T03:30:05;9.80;99.90
6118;DHT22;3089;48.202;11.510;2023-03-14T03:32:33;9.70;99.90
6118;DHT22;3089;48.202;11.510;2023-03-14T03:35:02;9.70;99.90
6118;DHT22;3089;48.202;11.510;2023-03-14T03:37:30;9.80;99.90
6118;DHT22;3089;48.202;11.510;2023-03-14T03:39:59;9.80;99.90
6118;DHT22;3089;48.202;11.510;2023-03-14T03:42:30;9.70;99.90
6118;DHT22;3089;48.202;11.510;2023-03-14T03:44:58;9.60;99.90
6118;DHT22;3089;48.202;11.510;2023-03-14T03:47:26;9.80;99.90
6118;DHT22;3089;48.202;11.510;2023-03-14T03:49:54;9.70;99.90
6118;DHT22;3089;48.202;11.510;2023-03-14T03:52:21;9.70;99.90
6118;DHT22;3089;48.202;11.510;2023-03-14T03:54:49;9.70;99.90
6118;DHT22;3089;48.202;11.510;2023-03-14T03:57:19;9.60;99.90
6118;DHT22;3089;48.202;11.510;2023-03-14T03:59:47;9.60;99.90
6118;DHT22;3089;48.202;11.510;2023-03-14T04:02:14;9.60;99.90
6118;DHT22;3089;48.202;11.510;2023-03-14T04:04:42;9.60;99.90
6118;DHT22;3089;48.202;11.510;2023-03-14T04:07:10;9.60;99.90
6118;DHT22;3089;48.202;11.510;2023-03-14T04:09:40;9.70;99.90
6118;DHT22;3089;48.202;11.510;2023-03-14T04:12:08;9.60;99.90
6118;DHT22;3089;48.202;11.510;2023-03-14T04:14:38;9.50;99.90
6118;DHT22;3089;48.202;11.510;2023-03-14T04:17:07;9.50;99.90
6118;DHT22;3089;48.202;11.510;2023-03-14T04:19:35;9.60;99.90
6118;DHT22;3089;48.202;11.510;2023-03-14T04:22:03;9.60;99.90
6118;DHT22;3089;48.202;11.510;2023-03-14T04:24:31;9.60;99.90
6118;DHT22;3089;48.202;11.510;2023-03-14T04:26:59;9.50;99.90
6118;DHT22;3089;48.202;11.510;2023-03-14T04:29:26;9.50;99.90
6118;DHT22;3089;48.202;11.510;2023-03-14T04:31:55;9.40;99.90
6118;DHT22;3089;48.202;11.510;2023-03-14T04:34:23;9.40;99.90
6118;DHT22;3089;48.202;11.510;2023-03-14T04:36:51;9.40;99.90
6118;DHT22;3089;48.202;11.510;2023-03-14T04:39:19;9.50;99.90
6118;DHT22;3089;48.202;11.510;2023-03-14T04:41:47;9.40;99.90
6118;DHT22;3089;48.202;11.510;2023-03-14T04:44:14;9.40;99.90
6118;DHT22;3089;48.202;11.510;2023-03-14T04:46:42;9.40;99.90
6118;DHT22;3089;48.202;11.510;2023-03-14T04:49:11;9.40;99.90
6118;DHT22;3089;48.202;11.510;2023-03-14T04:51:39;9.40;99.90
6118;DHT22;3089;48.202;11.510;2023-03-14T04:54:07;9.40;99.90
6118;DHT22;3089;48.202;11.510;2023-03-14T04:56:35;9.40;99.90
6118;DHT22;3089;48.202;11.510;2023-03-14T04:59:03;9.40;99.90
6118;DHT22;3089;48.202;11.510;2023-03-14T05:01:31;9.40;99.90
6118;DHT22;3089;48.202;11.510;2023-03-14T05:03:59;9.40;99.90
6118;DHT22;3089;48.202;11.510;2023-03-14T05:06:28;9.30;99.90
6118;DHT22;3089;48.202;11.510;2023-03-14T05:08:56;9.30;99.90
6118;DHT22;3089;48.202;11.510;2023-03-14T05:11:24;9.30;99.90
6118;DHT22;3089;48.202;11.510;2023-03-14T05:13:51;9.20;99.90
6118;DHT22;3089;48.202;11.510;2023-03-14T05:16:19;9.30;99.90
6118;DHT22;3089;48.202;11.510;2023-03-14T05:18:47;9.20;99.90
6118;DHT22;3089;48.202;11.510;2023-03-14T05:21:15;9.30;99.90
6118;DHT22;3089;48.202;11.510;2023-03-14T05:23:44;9.20;99.90
6118;DHT22;3089;48.202;11.510;2023-03-14T05:26:12;9.20;99.90
6118;DHT22;3089;48.202;11.510;2023-03-14T05:28:39;9.30;99.90
6118;DHT22;3089;48.202;11.510;2023-03-14T05:31:08;9.20;99.90
6118;DHT22;3089;48.202;11.510;2023-03-14T05:33:36;9.10;99.90
6118;DHT22;3089;48.202;11.510;2023-03-14T05:36:04;9.20;99.90
6118;DHT22;3089;48.202;11.510;2023-03-14T05:38:33;9.20;99.90
6118;DHT22;3089;48.202;11.510;2023-03-14T05:41:02;9.20;99.90
6118;DHT22;3089;48.202;11.510;2023-03-14T05:43:30;9.10;99.90
6118;DHT22;3089;48.202;11.510;2023-03-14T05:45:57;9.10;99.90
6118;DHT22;3089;48.202;11.510;2023-03-14T05:48:25;9.10;99.90
6118;DHT22;3089;48.202;11.510;2023-03-14T05:50:57;9.10;99.90
6118;DHT22;3089;48.202;11.510;2023-03-14T05:53:25;9.10;99.90
6118;DHT22;3089;48.202;11.510;2023-03-14T05:55:54;9.00;99.90
6118;DHT22;3089;48.202;11.510;2023-03-14T05:58:25;9.00;99.90
6118;DHT22;3089;48.202;11.510;2023-03-14T06:00:52;9.00;99.90
6118;DHT22;3089;48.202;11.510;2023-03-14T06:03:20;9.10;99.90
6118;DHT22;3089;48.202;11.510;2023-03-14T06:05:49;9.00;99.90
6118;DHT22;3089;48.202;11.510;2023-03-14T06:08:20;9.00;99.90
6118;DHT22;3089;48.202;11.510;2023-03-14T06:10:47;8.90;99.90
6118;DHT22;3089;48.202;11.510;2023-03-14T06:13:15;8.90;99.90
6118;DHT22;3089;48.202;11.510;2023-03-14T06:15:44;9.00;99.90
6118;DHT22;3089;48.202;11.510;2023-03-14T06:18:12;8.90;99.90
6118;DHT22;3089;48.202;11.510;2023-03-14T06:20:41;9.00;99.90
6118;DHT22;3089;48.202;11.510;2023-03-14T06:23:09;8.90;99.90
6118;DHT22;3089;48.202;11.510;2023-03-14T06:25:37;9.00;99.90
6118;DHT22;3089;48.202;11.510;2023-03-14T06:28:05;8.90;99.90
6118;DHT22;3089;48.202;11.510;2023-03-14T06:30:32;9.00;99.90
6118;DHT22;3089;48.202;11.510;2023-03-14T06:33:02;9.00;99.90
6118;DHT22;3089;48.202;11.510;2023-03-14T06:35:30;9.00;99.90
6118;DHT22;3089;48.202;11.510;2023-03-14T06:37:58;8.90;99.90
6118;DHT22;3089;48.202;11.510;2023-03-14T06:40:25;8.90;99.90
6118;DHT22;3089;48.202;11.510;2023-03-14T06:42:53;8.90;99.90
6118;DHT22;3089;48.202;11.510;2023-03-14T06:45:21;8.90;99.90
6118;DHT22;3089;48.202;11.510;2023-03-14T06:47:49;9.00;99.90
6118;DHT22;3089;48.202;11.510;2023-03-14T06:50:19;9.00;99.90
6118;DHT22;3089;48.202;11.510;2023-03-14T06:52:48;9.00;99.90
6118;DHT22;3089;48.202;11.510;2023-03-14T06:55:16;8.90;99.90
6118;DHT22;3089;48.202;11.510;2023-03-14T06:57:48;8.90;99.90
6118;DHT22;3089;48.202;11.510;2023-03-14T07:00:16;9.00;99.90
6118;DHT22;3089;48.202;11.510;2023-03-14T07:02:44;9.00;99.90
6118;DHT22;3089;48.202;11.510;2023-03-14T07:05:12;9.00;99.90
6118;DHT22;3089;48.202;11.510;2023-03-14T07:07:41;9.00;99.90
6118;DHT22;3089;48.202;11.510;2023-03-14T07:10:10;9.00;99.90
6118;DHT22;3089;48.202;11.510;2023-03-14T07:12:38;8.90;99.90
6118;DHT22;3089;48.202;11.510;2023-03-14T07:15:06;9.00;99.90
6118;DHT22;3089;48.202;11.510;2023-03-14T07:17:44;8.90;99.90
6118;DHT22;3089;48.202;11.510;2023-03-14T07:20:12;9.00;99.90
6118;DHT22;3089;48.202;11.510;2023-03-14T07:22:41;9.00;99.90
6118;DHT22;3089;48.202;11.510;2023-03-14T07:25:09;9.00;99.90
6118;DHT22;3089;48.202;11.510;2023-03-14T07:27:38;9.00;99.90
6118;DHT22;3089;48.202;11.510;2023-03-14T07:30:07;9.00;99.90
6118;DHT22;3089;48.202;11.510;2023-03-14T07:32:35;9.00;99.90
6118;DHT22;3089;48.202;11.510;2023-03-14T07:35:03;8.90;99.90
6118;DHT22;3089;48.202;11.510;2023-03-14T07:37:31;9.00;99.90
6118;DHT22;3089;48.202;11.510;2023-03-14T07:40:00;9.00;99.90
6118;DHT22;3089;48.202;11.510;2023-03-14T07:42:31;9.00;99.90
6118;DHT22;3089;48.202;11.510;2023-03-14T07:44:59;9.00;99.90
6118;DHT22;3089;48.202;11.510;2023-03-14T07:47:27;9.00;99.90
6118;DHT22;3089;48.202;11.510;2023-03-14T07:49:55;9.00;99.90
6118;DHT22;3089;48.202;11.510;2023-03-14T07:52:23;9.10;99.90
6118;DHT22;3089;48.202;11.510;2023-03-14T07:54:51;9.10;99.90
6118;DHT22;3089;48.202;11.510;2023-03-14T07:57:20;9.10;99.90
6118;DHT22;3089;48.202;11.510;2023-03-14T07:59:48;9.10;99.90
6118;DHT22;3089;48.202;11.510;2023-03-14T08:02:15;9.10;99.90
6118;DHT22;3089;48.202;11.510;2023-03-14T08:04:44;9.20;99.90
6118;DHT22;3089;48.202;11.510;2023-03-14T08:07:12;9.20;99.90
6118;DHT22;3089;48.202;11.510;2023-03-14T08:09:40;9.20;99.90
6118;DHT22;3089;48.202;11.510;2023-03-14T08:12:08;9.30;99.90
6118;DHT22;3089;48.202;11.510;2023-03-14T08:14:37;9.30;99.90
6118;DHT22;3089;48.202;11.510;2023-03-14T08:17:05;9.30;99.90
6118;DHT22;3089;48.202;11.510;2023-03-14T08:19:34;9.40;99.90
6118;DHT22;3089;48.202;11.510;2023-03-14T08:22:02;9.30;99.90
6118;DHT22;3089;48.202;11.510;2023-03-14T08:24:31;9.40;99.90
6118;DHT22;3089;48.202;11.510;2023-03-14T08:26:59;9.40;99.90
6118;DHT22;3089;48.202;11.510;2023-03-14T08:29:26;9.40;99.90
6118;DHT22;3089;48.202;11.510;2023-03-14T08:31:55;9.40;99.90
6118;DHT22;3089;48.202;11.510;2023-03-14T08:34:23;9.40;99.90
6118;DHT22;3089;48.202;11.510;2023-03-14T08:36:51;9.40;99.90
6118;DHT22;3089;48.202;11.510;2023-03-14T08:39:19;9.40;99.90
6118;DHT22;3089;48.202;11.510;2023-03-14T08:41:47;9.40;99.90
6118;DHT22;3089;48.202;11.510;2023-03-14T08:44:16;9.50;99.90
6118;DHT22;3089;48.202;11.510;2023-03-14T08:46:46;9.50;99.90
6118;DHT22;3089;48.202;11.510;2023-03-14T08:49:15;9.50;99.90
6118;DHT22;3089;48.202;11.510;2023-03-14T08:51:43;9.50;99.90
6118;DHT22;3089;48.202;11.510;2023-03-14T08:54:11;9.50;99.90
6118;DHT22;3089;48.202;11.510;2023-03-14T08:56:39;9.60;99.90
6118;DHT22;3089;48.202;11.510;2023-03-14T08:59:07;9.60;99.90
6118;DHT22;3089;48.202;11.510;2023-03-14T09:01:36;9.60;99.90
6118;DHT22;3089;48.202;11.510;2023-03-14T09:04:04;9.70;99.90
6118;DHT22;3089;48.202;11.510;2023-03-14T09:06:34;9.60;99.90
6118;DHT22;3089;48.202;11.510;2023-03-14T09:09:02;9.60;99.90
6118;DHT22;3089;48.202;11.510;2023-03-14T09:11:31;9.70;99.90
6118;DHT22;3089;48.202;11.510;2023-03-14T09:13:59;9.70;99.90
6118;DHT22;3089;48.202;11.510;2023-03-14T09:16:27;9.80;99.90
6118;DHT22;3089;48.202;11.510;2023-03-14T09:18:55;9.70;99.90
6118;DHT22;3089;48.202;11.510;2023-03-14T09:21:26;9.70;99.90
6118;DHT22;3089;48.202;11.510;2023-03-14T09:23:55;9.70;99.90
6118;DHT22;3089;48.202;11.510;2023-03-14T09:26:23;9.70;99.90
6118;DHT22;3089;48.202;11.510;2023-03-14T09:28:51;9.70;99.90
6118;DHT22;3089;48.202;11.510;2023-03-14T09:31:19;9.70;99.90
6118;DHT22;3089;48.202;11.510;2023-03-14T09:33:47;9.70;99.90
6118;DHT22;3089;48.202;11.510;2023-03-14T09:36:14;9.70;99.90
6118;DHT22;3089;48.202;11.510;2023-03-14T09:38:42;9.70;99.90
6118;DHT22;3089;48.202;11.510;2023-03-14T09:41:16;9.80;99.90
6118;DHT22;3089;48.202;11.510;2023-03-14T09:43:46;9.70;99.90
6118;DHT22;3089;48.202;11.510;2023-03-14T09:46:18;9.70;99.90
6118;DHT22;3089;48.202;11.510;2023-03-14T09:48:45;9.70;99.90
6118;DHT22;3089;48.202;11.510;2023-03-14T09:51:17;9.80;99.90
6118;DHT22;3089;48.202;11.510;2023-03-14T09:53:46;9.80;99.90
6118;DHT22;3089;48.202;11.510;2023-03-14T09:56:18;9.80;99.90
6118;DHT22;3089;48.202;11.510;2023-03-14T09:58:51;9.80;99.90
6118;DHT22;3089;48.202;11.510;2023-03-14T10:01:24;9.80;99.90
6118;DHT22;3089;48.202;11.510;2023-03-14T10:03:54;9.80;99.90
6118;DHT22;3089;48.202;11.510;2023-03-14T10:06:24;9.80;99.90
6118;DHT22;3089;48.202;11.510;2023-03-14T10:08:54;9.90;99.90
6118;DHT22;3089;48.202;11.510;2023-03-14T10:11:25;10.10;99.90
6118;DHT22;3089;48.202;11.510;2023-03-14T10:14:05;10.20;99.90
6118;DHT22;3089;48.202;11.510;2023-03-14T10:16:34;10.30;99.90
6118;DHT22;3089;48.202;11.510;2023-03-14T10:19:04;10.50;99.90
6118;DHT22;3089;48.202;11.510;2023-03-14T10:21:37;10.70;99.90
6118;DHT22;3089;48.202;11.510;2023-03-14T10:24:20;11.30;99.90
6118;DHT22;3089;48.202;11.510;2023-03-14T10:26:52;11.90;99.90
6118;DHT22;3089;48.202;11.510;2023-03-14T10:29:21;12.20;99.90
6118;DHT22;3089;48.202;11.510;2023-03-14T10:31:52;12.00;99.90
6118;DHT22;3089;48.202;11.510;2023-03-14T10:34:26;11.60;99.90
6118;DHT22;3089;48.202;11.510;2023-03-14T10:36:56;11.40;99.90
6118;DHT22;3089;48.202;11.510;2023-03-14T10:39:28;11.20;99.90
6118;DHT22;3089;48.202;11.510;2023-03-14T10:42:04;11.20;99.90
6118;DHT22;3089;48.202;11.510;2023-03-14T10:44:34;11.20;99.90
6118;DHT22;3089;48.202;11.510;2023-03-14T10:47:03;11.10;99.90
6118;DHT22;3089;48.202;11.510;2023-03-14T10:49:33;11.00;99.90
6118;DHT22;3089;48.202;11.510;2023-03-14T10:52:02;10.80;99.90
6118;DHT22;3089;48.202;11.510;2023-03-14T10:54:40;10.70;99.90
6118;DHT22;3089;48.202;11.510;2023-03-14T10:57:11;10.80;99.90
6118;DHT22;3089;48.202;11.510;2023-03-14T10:59:41;11.00;99.90
6118;DHT22;3089;48.202;11.510;2023-03-14T11:02:26;10.80;99.90
6118;DHT22;3089;48.202;11.510;2023-03-14T11:05:06;10.70;99.90
6118;DHT22;3089;48.202;11.510;2023-03-14T11:07:39;10.80;99.90
6118;DHT22;3089;48.202;11.510;2023-03-14T11:10:26;11.00;99.90
6118;DHT22;3089;48.202;11.510;2023-03-14T11:13:05;11.00;99.90
6118;DHT22;3089;48.202;11.510;2023-03-14T11:15:40;11.00;99.90
6118;DHT22;3089;48.202;11.510;2023-03-14T11:21:11;10.90;99.90
6118;DHT22;3089;48.202;11.510;2023-03-14T11:23:46;11.10;99.90
6118;DHT22;3089;48.202;11.510;2023-03-14T11:26:24;11.20;99.90
6118;DHT22;3089;48.202;11.510;2023-03-14T11:28:57;11.50;99.90
6118;DHT22;3089;48.202;11.510;2023-03-14T11:31:27;11.60;99.90
6118;DHT22;3089;48.202;11.510;2023-03-14T11:34:00;11.70;99.90
6118;DHT22;3089;48.202;11.510;2023-03-14T11:36:31;11.90;99.90
6118;DHT22;3089;48.202;11.510;2023-03-14T11:39:01;11.90;99.90
6118;DHT22;3089;48.202;11.510;2023-03-14T11:41:32;12.10;99.90
6118;DHT22;3089;48.202;11.510;2023-03-14T11:44:19;11.80;99.90
6118;DHT22;3089;48.202;11.510;2023-03-14T11:46:50;11.60;99.90
6118;DHT22;3089;48.202;11.510;2023-03-14T11:49:30;11.50;99.90
6118;DHT22;3089;48.202;11.510;2023-03-14T11:52:03;11.40;99.90
6118;DHT22;3089;48.202;11.510;2023-03-14T11:54:37;11.20;99.90
6118;DHT22;3089;48.202;11.510;2023-03-14T11:57:12;11.20;99.90
6118;DHT22;3089;48.202;11.510;2023-03-14T11:59:50;11.20;99.90
6118;DHT22;3089;48.202;11.510;2023-03-14T12:02:24;11.20;99.90
6118;DHT22;3089;48.202;11.510;2023-03-14T12:05:19;11.20;99.90
6118;DHT22;3089;48.202;11.510;2023-03-14T12:08:03;11.20;99.90
6118;DHT22;3089;48.202;11.510;2023-03-14T12:10:44;11.20;99.90
6118;DHT22;3089;48.202;11.510;2023-03-14T12:13:15;11.20;99.90
6118;DHT22;3089;48.202;11.510;2023-03-14T12:15:49;11.10;99.90
6118;DHT22;3089;48.202;11.510;2023-03-14T12:18:20;11.00;99.90
6118;DHT22;3089;48.202;11.510;2023-03-14T12:20:54;11.10;99.90
6118;DHT22;3089;48.202;11.510;2023-03-14T12:23:24;11.00;99.90
6118;DHT22;3089;48.202;11.510;2023-03-14T12:26:07;11.10;99.90
6118;DHT22;3089;48.202;11.510;2023-03-14T12:28:43;11.00;99.90
6118;DHT22;3089;48.202;11.510;2023-03-14T12:31:38;11.10;99.90
6118;DHT22;3089;48.202;11.510;2023-03-14T12:34:29;11.00;99.90
6118;DHT22;3089;48.202;11.510;2023-03-14T12:37:14;11.10;99.90
6118;DHT22;3089;48.202;11.510;2023-03-14T12:39:50;11.30;99.90
6118;DHT22;3089;48.202;11.510;2023-03-14T12:42:35;11.40;99.90
6118;DHT22;3089;48.202;11.510;2023-03-14T12:45:21;11.50;99.90
6118;DHT22;3089;48.202;11.510;2023-03-14T12:50:44;11.80;99.90
6118;DHT22;3089;48.202;11.510;2023-03-14T12:53:52;11.60;99.90
6118;DHT22;3089;48.202;11.510;2023-03-14T12:56:41;11.40;99.90
6118;DHT22;3089;48.202;11.510;2023-03-14T12:59:30;11.30;99.90
6118;DHT22;3089;48.202;11.510;2023-03-14T13:02:17;11.20;99.90
6118;DHT22;3089;48.202;11.510;2023-03-14T13:04:51;11.20;99.90
6118;DHT22;3089;48.202;11.510;2023-03-14T13:08:01;11.20;99.90
6118;DHT22;3089;48.202;11.510;2023-03-14T13:10:30;11.00;99.90
6118;DHT22;3089;48.202;11.510;2023-03-14T13:13:15;11.10;99.90
6118;DHT22;3089;48.202;11.510;2023-03-14T13:15:46;11.20;99.90
6118;DHT22;3089;48.202;11.510;2023-03-14T13:18:23;11.10;99.90
6118;DHT22;3089;48.202;11.510;2023-03-14T13:20:57;11.10;99.90
6118;DHT22;3089;48.202;11.510;2023-03-14T13:23:27;11.10;99.90
6118;DHT22;3089;48.202;11.510;2023-03-14T13:25:56;11.10;99.90
6118;DHT22;3089;48.202;11.510;2023-03-14T13:28:26;11.10;99.90
6118;DHT22;3089;48.202;11.510;2023-03-14T13:30:56;11.10;99.90
6118;DHT22;3089;48.202;11.510;2023-03-14T13:33:25;11.10;99.90
6118;DHT22;3089;48.202;11.510;2023-03-14T13:35:57;11.10;99.90
6118;DHT22;3089;48.202;11.510;2023-03-14T13:38:27;11.10;99.90
6118;DHT22;3089;48.202;11.510;2023-03-14T13:40:57;10.90;99.90
6118;DHT22;3089;48.202;11.510;2023-03-14T13:43:28;10.80;99.90
6118;DHT22;3089;48.202;11.510;2023-03-14T13:46:02;10.80;99.90
6118;DHT22;3089;48.202;11.510;2023-03-14T13:48:32;10.80;99.90
6118;DHT22;3089;48.202;11.510;2023-03-14T13:58:39;10.60;99.90
6118;DHT22;3089;48.202;11.510;2023-03-14T14:01:13;10.60;99.90
6118;DHT22;3089;48.202;11.510;2023-03-14T14:03:43;10.50;99.90
6118;DHT22;3089;48.202;11.510;2023-03-14T14:06:27;10.60;99.90
6118;DHT22;3089;48.202;11.510;2023-03-14T14:08:56;10.50;99.90
6118;DHT22;3089;48.202;11.510;2023-03-14T14:11:32;10.50;99.90
6118;DHT22;3089;48.202;11.510;2023-03-14T14:14:21;10.30;99.90
6118;DHT22;3089;48.202;11.510;2023-03-14T14:16:50;10.20;99.90
6118;DHT22;3089;48.202;11.510;2023-03-14T14:19:22;10.20;99.90
6118;DHT22;3089;48.202;11.510;2023-03-14T14:21:51;10.30;99.90
6118;DHT22;3089;48.202;11.510;2023-03-14T14:24:21;10.20;99.90
6118;DHT22;3089;48.202;11.510;2023-03-14T14:26:51;10.20;99.90
6118;DHT22;3089;48.202;11.510;2023-03-14T14:29:25;10.20;99.90
6118;DHT22;3089;48.202;11.510;2023-03-14T14:32:01;10.20;99.90
6118;DHT22;3089;48.202;11.510;2023-03-14T14:34:29;10.00;99.90
6118;DHT22;3089;48.202;11.510;2023-03-14T14:37:05;10.00;99.90
6118;DHT22;3089;48.202;11.510;2023-03-14T14:39:33;10.00;99.90
6118;DHT22;3089;48.202;11.510;2023-03-14T14:42:01;9.90;99.90
6118;DHT22;3089;48.202;11.510;2023-03-14T14:44:33;9.90;99.90
6118;DHT22;3089;48.202;11.510;2023-03-14T14:47:02;9.80;99.90
6118;DHT22;3089;48.202;11.510;2023-03-14T14:49:32;9.80;99.90
6118;DHT22;3089;48.202;11.510;2023-03-14T14:52:02;9.30;99.90
6118;DHT22;3089;48.202;11.510;2023-03-14T14:54:37;9.20;99.90
6118;DHT22;3089;48.202;11.510;2023-03-14T14:57:17;9.40;99.90
6118;DHT22;3089;48.202;11.510;2023-03-14T14:59:48;9.50;99.90
6118;DHT22;3089;48.202;11.510;2023-03-14T15:02:29;9.50;99.90
6118;DHT22;3089;48.202;11.510;2023-03-14T15:04:58;9.60;99.90
6118;DHT22;3089;48.202;11.510;2023-03-14T15:07:26;9.60;99.90
6118;DHT22;3089;48.202;11.510;2023-03-14T15:09:54;9.60;99.90
6118;DHT22;3089;48.202;11.510;2023-03-14T15:12:22;9.60;99.90
6118;DHT22;3089;48.202;11.510;2023-03-14T15:14:52;9.60;99.90
6118;DHT22;3089;48.202;11.510;2023-03-14T15:17:23;9.60;99.90
6118;DHT22;3089;48.202;11.510;2023-03-14T15:19:51;9.60;99.90
6118;DHT22;3089;48.202;11.510;2023-03-14T15:22:19;9.50;99.90
6118;DHT22;3089;48.202;11.510;2023-03-14T15:24:47;9.40;99.90
6118;DHT22;3089;48.202;11.510;2023-03-14T15:27:16;9.30;99.90
6118;DHT22;3089;48.202;11.510;2023-03-14T15:29:44;9.30;99.90
6118;DHT22;3089;48.202;11.510;2023-03-14T15:32:15;9.40;99.90
6118;DHT22;3089;48.202;11.510;2023-03-14T15:34:44;9.40;99.90
6118;DHT22;3089;48.202;11.510;2023-03-14T15:37:13;9.20;99.90
6118;DHT22;3089;48.202;11.510;2023-03-14T15:39:42;9.30;99.90
6118;DHT22;3089;48.202;11.510;2023-03-14T15:42:10;9.30;99.90
6118;DHT22;3089;48.202;11.510;2023-03-14T15:44:38;9.20;99.90
6118;DHT22;3089;48.202;11.510;2023-03-14T15:47:08;9.20;99.90
6118;DHT22;3089;48.202;11.510;2023-03-14T15:49:37;9.20;99.90
6118;DHT22;3089;48.202;11.510;2023-03-14T15:52:06;9.10;99.90
6118;DHT22;3089;48.202;11.510;2023-03-14T15:54:34;9.20;99.90
6118;DHT22;3089;48.202;11.510;2023-03-14T15:57:02;9.20;99.90
6118;DHT22;3089;48.202;11.510;2023-03-14T15:59:30;9.10;99.90
6118;DHT22;3089;48.202;11.510;2023-03-14T16:01:58;9.10;99.90
6118;DHT22;3089;48.202;11.510;2023-03-14T16:04:26;9.10;99.90
6118;DHT22;3089;48.202;11.510;2023-03-14T16:06:57;9.20;99.90
6118;DHT22;3089;48.202;11.510;2023-03-14T16:09:25;9.10;99.90
6118;DHT22;3089;48.202;11.510;2023-03-14T16:11:53;8.90;99.90
6118;DHT22;3089;48.202;11.510;2023-03-14T16:14:21;9.00;99.90
6118;DHT22;3089;48.202;11.510;2023-03-14T16:16:51;9.00;99.90
6118;DHT22;3089;48.202;11.510;2023-03-14T16:19:19;9.00;99.90
6118;DHT22;3089;48.202;11.510;2023-03-14T16:21:47;9.00;99.90
6118;DHT22;3089;48.202;11.510;2023-03-14T16:24:19;8.90;99.90
6118;DHT22;3089;48.202;11.510;2023-03-14T16:26:47;9.00;99.90
6118;DHT22;3089;48.202;11.510;2023-03-14T16:29:15;8.90;99.90
6118;DHT22;3089;48.202;11.510;2023-03-14T16:31:43;8.90;99.90
6118;DHT22;3089;48.202;11.510;2023-03-14T16:34:11;8.90;99.90